Aérodrome :
LOGIN :

S'inscrire | Disclaimer

   EN    FR    IT 

 










Légende :    VFR   VFR Marginal   IFR   IFR Intensif   IFR Très Intensif
Visi : 
Plafond : 
>= 8 km
>= 3000ft
5 à 8 km
1000 à 3000 ft
1500m à 5 km
500 à 1000 ft
800 à 1500m
200 à 500 ft
< 800m
< 200 ft
Symboles :   Orages  Brouillard  Fortes neiges  Fortes précipitations  Vent > 20 kt
SIGMETs :   Divers  Orages  Givrage  Turbulence  Onde Orograph.  Cendres Volcan.






- Altitude de l'aérodrome : 53 ft
- Code IATA : HAM


EDDH - Hamburg

DERNIER METAR :
  • 080620Z AUTO 15006KT CAVOK M04/M06 Q1040 NOSIG

METARs EXPIRÉS :
  • 080550Z AUTO 15008KT CAVOK M04/M06 Q1040 NOSIG
  • 080520Z AUTO 15006KT CAVOK M04/M06 Q1040 NOSIG
  • 080450Z AUTO 14004KT CAVOK M04/M06 Q1040 NOSIG
  • 080420Z AUTO 10003KT CAVOK M04/M06 Q1040 NOSIG
  • 080350Z AUTO 11004KT CAVOK M03/M06 Q1040 NOSIG
  • 080320Z AUTO 12003KT 080V170 CAVOK M03/M06 Q1040 NOSIG

TAF TAF EDDH
Valide du 08 à 06h jusqu'au 09 à 12h UTC


080500Z 0806/0912 12003KT CAVOK
BECMG 0808/0810 16008KT
BECMG 0902/0904 22010KT



MET'MAP, la Météo Aéronautique d'un coup d'oeil ! - Copyright ORBIFLY Décembre 2007 - Disclaimer

ORBIFLY MET'MAP TEAM :

Programmation & Développement : Alexandra Zaïnal
Sur une idée originale de : Baudouin d'Aumeries
Soutien technique & logistique : Manuel Goepfert
Assistance : Marc-Olivier Méhu




SOURCES & CREDITS :

   NOAA